createdAt,value
2019-06-26T00:00:47.085Z,24.10
2019-06-26T00:03:16.311Z,24.07
2019-06-26T00:05:45.513Z,24.03
2019-06-26T00:08:14.693Z,24.01
2019-06-26T00:10:43.808Z,23.98
2019-06-26T00:13:25.624Z,23.95
2019-06-26T00:15:43.798Z,23.88
2019-06-26T00:18:13.009Z,23.81
2019-06-26T00:20:42.130Z,23.77
2019-06-26T00:23:11.733Z,23.77
2019-06-26T00:25:41.011Z,23.75
2019-06-26T00:28:10.143Z,23.75
2019-06-26T00:30:39.262Z,23.76
2019-06-26T00:33:08.370Z,23.78
2019-06-26T00:35:37.734Z,23.77
2019-06-26T00:38:06.871Z,23.74
2019-06-26T00:40:36.013Z,23.71
2019-06-26T00:43:05.157Z,23.71
2019-06-26T00:45:34.280Z,23.68
2019-06-26T00:48:03.424Z,23.68
2019-06-26T00:50:32.572Z,23.67
2019-06-26T00:53:01.809Z,23.65
2019-06-26T00:55:30.939Z,23.55
2019-06-26T00:58:00.059Z,23.44
2019-06-26T01:00:34.831Z,23.35
2019-06-26T01:03:03.965Z,23.24
2019-06-26T01:05:33.102Z,23.19
2019-06-26T01:08:02.275Z,23.14
2019-06-26T01:10:31.417Z,23.07
2019-06-26T01:13:00.577Z,23.05
2019-06-26T01:15:29.925Z,23.03
2019-06-26T01:17:59.033Z,23.04
2019-06-26T01:20:28.202Z,23.02
2019-06-26T01:22:57.520Z,22.97
2019-06-26T01:25:26.629Z,22.89
2019-06-26T01:27:55.791Z,22.89
2019-06-26T01:30:25.326Z,22.87
2019-06-26T01:32:55.068Z,22.78
2019-06-26T01:35:24.182Z,22.77
2019-06-26T01:37:53.342Z,22.77
2019-06-26T01:40:23.350Z,22.76
2019-06-26T01:42:52.455Z,22.70
2019-06-26T01:45:21.631Z,22.71
2019-06-26T01:47:50.818Z,22.70
2019-06-26T01:50:20.376Z,22.69
2019-06-26T01:52:49.581Z,22.70
2019-06-26T01:55:18.793Z,22.69
2019-06-26T01:57:47.935Z,22.69
2019-06-26T02:00:17.549Z,22.69
2019-06-26T02:02:46.721Z,22.68
2019-06-26T02:05:16.152Z,22.70
2019-06-26T02:07:45.251Z,22.65
2019-06-26T02:10:14.773Z,22.65
2019-06-26T02:12:44.021Z,22.63
2019-06-26T02:15:13.498Z,22.64
2019-06-26T02:17:42.655Z,22.66
2019-06-26T02:20:12.203Z,22.67
2019-06-26T02:22:41.458Z,22.65
2019-06-26T02:25:10.796Z,22.66
2019-06-26T02:27:40.002Z,22.64
2019-06-26T02:30:09.399Z,22.61
2019-06-26T02:32:38.524Z,22.57
2019-06-26T02:35:10.212Z,22.52
2019-06-26T02:37:39.824Z,22.48
2019-06-26T02:40:09.587Z,22.34
2019-06-26T02:42:39.044Z,22.36
2019-06-26T02:45:08.434Z,22.35
2019-06-26T02:47:37.547Z,22.35
2019-06-26T02:50:07.272Z,22.33
2019-06-26T02:52:36.400Z,22.28
2019-06-26T02:55:06.066Z,22.24
2019-06-26T02:57:35.237Z,22.21
2019-06-26T03:00:05.677Z,22.21
2019-06-26T03:02:34.807Z,22.20
2019-06-26T03:05:04.041Z,22.19
2019-06-26T03:07:33.384Z,22.19
2019-06-26T03:10:02.493Z,22.20
2019-06-26T03:12:31.702Z,22.21
2019-06-26T03:15:08.687Z,22.21
2019-06-26T03:17:31.858Z,22.20
2019-06-26T03:20:00.956Z,22.18
2019-06-26T03:22:30.096Z,22.16
2019-06-26T03:24:59.236Z,22.07
2019-06-26T03:27:28.458Z,22.01
2019-06-26T03:29:57.618Z,21.99
2019-06-26T03:32:26.804Z,22.00
2019-06-26T03:34:55.977Z,21.96
2019-06-26T03:37:25.336Z,21.97
2019-06-26T03:39:54.492Z,21.98
2019-06-26T03:42:23.734Z,21.98
2019-06-26T03:44:52.856Z,21.90
2019-06-26T03:47:22.071Z,21.92
2019-06-26T03:49:51.198Z,21.93
2019-06-26T03:52:20.330Z,21.90
2019-06-26T03:54:49.481Z,21.93
2019-06-26T03:57:18.588Z,21.95
2019-06-26T03:59:47.864Z,21.96
2019-06-26T04:02:17.017Z,21.98
2019-06-26T04:04:46.171Z,21.97
2019-06-26T04:07:15.277Z,21.93
2019-06-26T04:09:44.422Z,21.94
2019-06-26T04:12:13.611Z,21.94
2019-06-26T04:14:42.758Z,21.95
2019-06-26T04:17:11.850Z,21.99
2019-06-26T04:19:41.010Z,22.00
2019-06-26T04:22:10.136Z,22.01
2019-06-26T04:24:39.267Z,21.98
2019-06-26T04:27:09.201Z,22.02
2019-06-26T04:29:38.348Z,22.04
2019-06-26T04:32:09.887Z,22.07
2019-06-26T04:34:39.029Z,22.12
2019-06-26T04:37:08.230Z,22.14
2019-06-26T04:39:37.373Z,22.08
2019-06-26T04:42:06.516Z,22.16
2019-06-26T04:44:35.680Z,22.16
2019-06-26T04:47:04.826Z,22.17
2019-06-26T04:49:33.956Z,22.26
2019-06-26T04:52:03.128Z,22.35
2019-06-26T04:54:32.320Z,22.44
2019-06-26T04:57:01.463Z,22.51
2019-06-26T04:59:30.633Z,22.49
2019-06-26T05:01:59.868Z,22.52
2019-06-26T05:04:29.018Z,22.56
2019-06-26T05:06:58.188Z,22.54
2019-06-26T05:09:27.306Z,22.54
2019-06-26T05:11:56.508Z,22.62
2019-06-26T05:14:25.646Z,22.69
2019-06-26T05:16:54.940Z,22.75
2019-06-26T05:19:24.144Z,22.81
2019-06-26T05:21:53.253Z,22.86
2019-06-26T05:24:22.464Z,22.92
2019-06-26T05:26:51.696Z,22.90
2019-06-26T05:29:20.850Z,22.95
2019-06-26T05:31:50.052Z,22.91
2019-06-26T05:34:19.218Z,22.86
2019-06-26T05:36:48.418Z,22.91
2019-06-26T05:39:18.041Z,23.01
2019-06-26T05:41:47.160Z,23.08
2019-06-26T05:46:40.838Z,23.23
2019-06-26T05:49:10.049Z,23.28
2019-06-26T05:51:39.181Z,23.29
2019-06-26T05:54:08.542Z,23.39
2019-06-26T05:56:37.643Z,23.47
2019-06-26T05:59:06.899Z,23.58
2019-06-26T06:01:36.047Z,23.69
2019-06-26T06:04:05.188Z,23.77
2019-06-26T06:06:41.675Z,23.86
2019-06-26T06:09:06.947Z,23.96
2019-06-26T06:11:36.097Z,24.06
2019-06-26T06:14:05.400Z,24.13
2019-06-26T06:16:46.967Z,24.21
2019-06-26T06:19:06.032Z,24.31
2019-06-26T06:21:35.204Z,24.29
2019-06-26T06:24:04.572Z,24.34
2019-06-26T06:26:33.767Z,24.42
2019-06-26T06:29:03.026Z,24.47
2019-06-26T06:31:32.182Z,24.52
2019-06-26T06:34:01.364Z,24.58
2019-06-26T06:36:31.865Z,24.68
2019-06-26T06:39:00.989Z,24.74
2019-06-26T06:41:30.201Z,24.80
2019-06-26T06:43:59.379Z,24.87
2019-06-26T06:46:28.550Z,24.94
2019-06-26T06:48:57.709Z,25.01
2019-06-26T06:51:26.838Z,25.06
2019-06-26T06:53:56.016Z,25.11
2019-06-26T06:56:25.163Z,25.17
2019-06-26T06:58:54.403Z,25.22
2019-06-26T07:01:23.513Z,25.29
2019-06-26T07:03:52.674Z,25.36
2019-06-26T07:06:21.901Z,25.45
2019-06-26T07:08:51.067Z,25.49
2019-06-26T07:11:20.215Z,25.55
2019-06-26T07:13:49.619Z,25.59
2019-06-26T07:16:18.819Z,25.66
2019-06-26T07:18:48.006Z,25.75
2019-06-26T07:21:17.140Z,25.81
2019-06-26T07:23:46.303Z,25.91
2019-06-26T07:26:15.522Z,26.00
2019-06-26T07:28:44.669Z,26.07
2019-06-26T07:31:13.783Z,26.15
2019-06-26T07:33:43.000Z,26.22
2019-06-26T07:36:12.177Z,26.28
2019-06-26T07:38:41.321Z,26.35
2019-06-26T07:41:10.651Z,26.42
2019-06-26T07:43:39.875Z,26.48
2019-06-26T07:46:09.041Z,26.57
2019-06-26T07:48:38.221Z,26.66
2019-06-26T07:51:07.370Z,26.76
2019-06-26T07:53:36.509Z,26.88
2019-06-26T07:56:05.647Z,26.94
2019-06-26T07:58:34.777Z,27.00
2019-06-26T08:01:03.973Z,27.04
2019-06-26T08:03:33.151Z,27.09
2019-06-26T08:06:02.417Z,27.19
2019-06-26T08:08:31.554Z,27.25
2019-06-26T08:11:00.768Z,27.31
2019-06-26T08:13:29.871Z,27.38
2019-06-26T08:15:59.112Z,27.49
2019-06-26T08:18:28.228Z,27.59
2019-06-26T08:21:11.396Z,27.62
2019-06-26T08:23:28.349Z,27.67
2019-06-26T08:25:57.465Z,27.72
2019-06-26T08:28:26.693Z,27.86
2019-06-26T08:30:55.822Z,27.97
2019-06-26T08:33:24.975Z,28.16
2019-06-26T08:35:54.646Z,28.37
2019-06-26T08:38:23.775Z,28.40
2019-06-26T08:40:52.906Z,28.54
2019-06-26T08:43:22.051Z,28.68
2019-06-26T08:45:51.223Z,28.68
2019-06-26T08:48:38.264Z,28.73
2019-06-26T08:50:51.333Z,28.77
2019-06-26T08:53:20.482Z,28.78
2019-06-26T08:55:49.655Z,28.82
2019-06-26T08:58:18.791Z,28.83
2019-06-26T09:00:47.926Z,28.89
2019-06-26T09:03:17.056Z,29.13
2019-06-26T09:05:48.435Z,29.13
2019-06-26T09:08:17.245Z,29.25
2019-06-26T09:10:46.401Z,29.29
2019-06-26T09:13:15.495Z,29.41
2019-06-26T09:15:44.586Z,29.44
2019-06-26T09:18:13.708Z,29.51
2019-06-26T09:20:43.159Z,29.53
2019-06-26T09:23:12.389Z,29.53
2019-06-26T09:25:41.569Z,29.63
2019-06-26T09:28:10.690Z,29.69
2019-06-26T09:30:39.827Z,29.69
2019-06-26T09:33:08.996Z,29.83
2019-06-26T09:35:38.111Z,29.94
2019-06-26T09:38:07.215Z,29.99
2019-06-26T09:40:36.374Z,30.22
2019-06-26T09:43:05.535Z,30.24
2019-06-26T09:45:34.679Z,30.25
2019-06-26T09:48:03.898Z,30.31
2019-06-26T09:50:33.054Z,30.32
2019-06-26T09:53:05.168Z,30.34
2019-06-26T09:55:33.093Z,30.43
2019-06-26T09:58:02.219Z,30.50
2019-06-26T10:00:32.149Z,30.63
2019-06-26T10:03:01.288Z,30.72
2019-06-26T10:05:30.413Z,30.82
2019-06-26T10:07:59.550Z,30.93
2019-06-26T10:10:28.667Z,31.06
2019-06-26T10:12:57.816Z,31.16
2019-06-26T10:15:26.987Z,31.23
2019-06-26T10:17:56.197Z,31.27
2019-06-26T10:20:25.370Z,31.33
2019-06-26T10:22:54.538Z,31.42
2019-06-26T10:25:23.734Z,31.56
2019-06-26T10:27:52.861Z,31.70
2019-06-26T10:30:22.783Z,31.80
2019-06-26T10:32:51.872Z,31.87
2019-06-26T10:35:21.166Z,31.96
2019-06-26T10:37:50.403Z,32.04
2019-06-26T10:40:19.907Z,32.34
2019-06-26T10:42:49.028Z,32.39
2019-06-26T10:45:18.902Z,32.58
2019-06-26T10:47:48.011Z,32.72
2019-06-26T10:50:17.208Z,32.75
2019-06-26T10:52:46.375Z,32.88
2019-06-26T10:55:15.564Z,32.91
2019-06-26T10:57:44.717Z,32.91
2019-06-26T11:00:14.402Z,32.92
2019-06-26T11:02:43.533Z,32.98
2019-06-26T11:05:14.853Z,33.06
2019-06-26T11:07:44.083Z,33.15
2019-06-26T11:10:13.443Z,33.26
2019-06-26T11:12:42.612Z,33.30
2019-06-26T11:15:12.962Z,33.32
2019-06-26T11:17:42.144Z,33.42
2019-06-26T11:20:11.848Z,33.45
2019-06-26T11:22:41.150Z,33.44
2019-06-26T11:25:10.893Z,33.41
2019-06-26T11:27:42.880Z,33.53
2019-06-26T11:30:12.755Z,33.63
2019-06-26T11:32:42.052Z,33.86
2019-06-26T11:35:11.522Z,33.86
2019-06-26T11:37:40.873Z,33.95
2019-06-26T11:40:10.569Z,34.07
2019-06-26T11:42:39.869Z,34.17
2019-06-26T11:45:09.729Z,34.21
2019-06-26T11:47:39.009Z,34.24
2019-06-26T11:50:08.983Z,34.32
2019-06-26T11:52:38.284Z,34.24
2019-06-26T11:55:07.887Z,34.29
2019-06-26T11:57:37.040Z,34.30
2019-06-26T12:00:08.394Z,34.36
2019-06-26T12:02:37.615Z,34.42
2019-06-26T12:05:07.854Z,34.46
2019-06-26T12:07:36.976Z,34.25
2019-06-26T12:10:07.019Z,34.32
2019-06-26T12:12:36.181Z,34.29
2019-06-26T12:15:06.488Z,34.43
2019-06-26T12:17:35.798Z,34.51
2019-06-26T12:20:17.987Z,34.60
2019-06-26T12:22:36.374Z,34.68
2019-06-26T12:25:05.927Z,34.72
2019-06-26T12:27:35.049Z,34.79
2019-06-26T12:30:05.769Z,34.81
2019-06-26T12:32:41.745Z,34.87
2019-06-26T12:35:06.543Z,34.98
2019-06-26T12:37:38.068Z,35.03
2019-06-26T12:40:08.015Z,35.09
2019-06-26T12:42:37.289Z,35.07
2019-06-26T12:45:06.640Z,34.99
2019-06-26T12:47:35.821Z,35.03
2019-06-26T12:50:05.416Z,35.08
2019-06-26T12:52:34.598Z,35.10
2019-06-26T12:55:04.360Z,35.15
2019-06-26T12:57:33.491Z,35.16
2019-06-26T13:00:02.910Z,35.22
2019-06-26T13:02:32.166Z,35.24
2019-06-26T13:05:01.306Z,35.33
2019-06-26T13:07:30.522Z,35.46
2019-06-26T13:09:59.657Z,35.50
2019-06-26T13:12:29.162Z,35.51
2019-06-26T13:14:58.270Z,35.63
2019-06-26T13:17:27.492Z,35.78
2019-06-26T13:19:56.642Z,35.80
2019-06-26T13:22:25.929Z,35.96
2019-06-26T13:24:55.178Z,35.94
2019-06-26T13:27:24.350Z,36.01
2019-06-26T13:29:53.508Z,36.09
2019-06-26T13:32:22.757Z,35.95
2019-06-26T13:34:51.925Z,35.84
2019-06-26T13:37:21.090Z,35.87
2019-06-26T13:39:50.276Z,35.88
2019-06-26T13:42:19.780Z,35.65
2019-06-26T13:44:48.943Z,35.60
2019-06-26T13:47:18.145Z,35.74
2019-06-26T13:49:47.378Z,35.83
2019-06-26T13:52:16.544Z,35.89
2019-06-26T13:54:45.839Z,35.75
2019-06-26T13:57:15.987Z,35.67
2019-06-26T13:59:45.312Z,35.45
2019-06-26T14:02:14.464Z,35.47
2019-06-26T14:04:43.656Z,35.58
2019-06-26T14:07:13.323Z,35.75
2019-06-26T14:09:42.469Z,35.95
2019-06-26T14:12:11.669Z,36.03
2019-06-26T14:14:56.565Z,36.20
2019-06-26T14:17:11.671Z,36.43
2019-06-26T14:19:40.872Z,36.69
2019-06-26T14:22:13.012Z,36.89
2019-06-26T14:24:41.539Z,36.95
2019-06-26T14:27:11.289Z,36.96
2019-06-26T14:29:40.714Z,37.08
2019-06-26T14:32:10.439Z,37.14
2019-06-26T14:34:39.831Z,36.83
2019-06-26T14:37:09.420Z,36.87
2019-06-26T14:39:41.066Z,36.94
2019-06-26T14:42:10.230Z,37.08
2019-06-26T14:44:39.835Z,37.16
2019-06-26T14:47:09.354Z,37.44
2019-06-26T14:49:38.582Z,37.13
2019-06-26T14:52:08.065Z,37.25
2019-06-26T14:54:37.519Z,37.22
2019-06-26T14:57:06.891Z,37.48
2019-06-26T14:59:36.341Z,37.81
2019-06-26T15:02:06.101Z,38.07
2019-06-26T15:04:35.834Z,38.29
2019-06-26T15:07:05.118Z,38.52
2019-06-26T15:09:34.411Z,38.35
2019-06-26T15:12:03.834Z,38.46
2019-06-26T15:14:33.004Z,38.50
2019-06-26T15:17:02.348Z,38.80
2019-06-26T15:19:31.541Z,38.67
2019-06-26T15:22:00.850Z,39.52
2019-06-26T15:24:30.139Z,39.52
2019-06-26T15:26:59.324Z,39.88
2019-06-26T15:29:28.479Z,40.32
2019-06-26T15:31:57.721Z,40.78
2019-06-26T15:34:26.890Z,41.26
2019-06-26T15:36:56.048Z,41.72
2019-06-26T15:39:25.327Z,42.06
2019-06-26T15:41:54.478Z,42.53
2019-06-26T15:44:23.606Z,43.09
2019-06-26T15:46:52.849Z,43.65
2019-06-26T15:49:21.974Z,44.05
2019-06-26T15:51:51.148Z,44.30
2019-06-26T15:54:20.353Z,44.45
2019-06-26T15:56:49.533Z,44.71
2019-06-26T15:59:18.734Z,44.85
2019-06-26T16:01:47.983Z,44.90
2019-06-26T16:04:17.213Z,44.76
2019-06-26T16:06:46.443Z,44.50
2019-06-26T16:09:15.632Z,44.42
2019-06-26T16:11:44.767Z,44.11
2019-06-26T16:14:14.009Z,43.87
2019-06-26T16:16:44.746Z,43.61
2019-06-26T16:19:16.424Z,43.39
2019-06-26T16:21:45.588Z,43.02
2019-06-26T16:24:14.773Z,42.78
2019-06-26T16:26:43.942Z,42.54
2019-06-26T16:29:13.155Z,42.23
2019-06-26T16:32:48.925Z,41.89
2019-06-26T16:35:18.140Z,41.65
2019-06-26T16:37:47.307Z,41.33
2019-06-26T16:40:16.541Z,41.02
2019-06-26T16:42:45.700Z,40.68
2019-06-26T16:45:16.567Z,40.31
2019-06-26T16:47:45.744Z,40.05
2019-06-26T16:50:15.222Z,39.83
2019-06-26T16:52:49.105Z,39.38
2019-06-26T16:55:15.292Z,39.09
2019-06-26T16:57:44.481Z,38.89
2019-06-26T17:00:15.242Z,38.51
2019-06-26T17:02:44.443Z,38.19
2019-06-26T17:05:14.024Z,38.10
2019-06-26T17:07:44.418Z,37.84
2019-06-26T17:10:14.186Z,37.69
2019-06-26T17:12:43.375Z,37.60
2019-06-26T17:15:13.044Z,37.45
2019-06-26T17:17:42.338Z,37.26
2019-06-26T17:20:11.536Z,37.17
2019-06-26T17:22:40.718Z,37.06
2019-06-26T17:25:10.467Z,36.97
2019-06-26T17:27:39.675Z,36.83
2019-06-26T17:30:09.746Z,36.73
2019-06-26T17:32:38.930Z,36.61
2019-06-26T17:35:08.361Z,36.53
2019-06-26T17:37:37.580Z,36.40
2019-06-26T17:40:07.048Z,36.26
2019-06-26T17:42:36.229Z,36.15
2019-06-26T17:45:06.003Z,36.05
2019-06-26T17:47:35.167Z,35.94
2019-06-26T17:50:06.228Z,35.85
2019-06-26T17:52:38.234Z,35.75
2019-06-26T17:55:06.900Z,35.66
2019-06-26T17:57:36.059Z,35.26
2019-06-26T18:00:06.543Z,35.26
2019-06-26T18:02:36.063Z,35.16
2019-06-26T18:05:06.017Z,35.07
2019-06-26T18:07:35.257Z,34.95
2019-06-26T18:10:04.900Z,34.85
2019-06-26T18:12:34.111Z,34.77
2019-06-26T18:15:03.490Z,34.69
2019-06-26T18:19:23.131Z,34.58
2019-06-26T18:21:52.312Z,34.44
2019-06-26T18:24:22.834Z,34.34
2019-06-26T18:26:51.974Z,34.22
2019-06-26T18:29:21.098Z,34.12
2019-06-26T18:31:50.288Z,33.96
2019-06-26T18:34:19.580Z,33.85
2019-06-26T18:36:48.757Z,33.71
2019-06-26T18:39:17.890Z,33.63
2019-06-26T18:41:47.122Z,33.52
2019-06-26T18:44:16.285Z,33.42
2019-06-26T18:46:45.578Z,33.32
2019-06-26T18:49:14.873Z,33.21
2019-06-26T18:51:44.062Z,33.10
2019-06-26T18:54:13.282Z,33.00
2019-06-26T18:56:42.500Z,32.88
2019-06-26T18:59:11.729Z,32.78
2019-06-26T19:01:40.893Z,32.69
2019-06-26T19:04:10.055Z,32.57
2019-06-26T19:06:39.221Z,32.48
2019-06-26T19:09:08.394Z,32.38
2019-06-26T19:11:37.507Z,32.30
2019-06-26T19:14:06.706Z,32.20
2019-06-26T19:16:36.531Z,32.10
2019-06-26T19:19:05.793Z,31.99
2019-06-26T19:21:37.091Z,31.90
2019-06-26T19:24:10.216Z,31.81
2019-06-26T19:26:36.868Z,31.71
2019-06-26T19:29:06.144Z,31.61
2019-06-26T19:31:35.371Z,31.52
2019-06-26T19:34:04.589Z,31.45
2019-06-26T19:36:49.135Z,31.39
2019-06-26T19:39:06.985Z,31.29
2019-06-26T19:41:36.119Z,31.18
2019-06-26T19:44:08.707Z,31.10
2019-06-26T19:46:36.326Z,31.01
2019-06-26T19:49:05.514Z,30.91
2019-06-26T19:51:34.702Z,30.83
2019-06-26T19:54:05.991Z,30.73
2019-06-26T19:56:35.188Z,30.65
2019-06-26T19:59:04.375Z,30.52
2019-06-26T20:01:33.578Z,30.45
2019-06-26T20:04:02.720Z,30.38
2019-06-26T20:06:31.999Z,30.32
2019-06-26T20:09:01.302Z,30.23
2019-06-26T20:11:30.474Z,30.18
2019-06-26T20:13:59.757Z,30.11
2019-06-26T20:16:29.024Z,30.05
2019-06-26T20:18:58.287Z,29.99
2019-06-26T20:21:27.492Z,29.96
2019-06-26T20:23:56.682Z,29.89
2019-06-26T20:26:25.968Z,29.84
2019-06-26T20:28:55.339Z,29.83
2019-06-26T20:31:24.609Z,29.83
2019-06-26T20:33:53.883Z,29.82
2019-06-26T20:36:23.185Z,29.80
2019-06-26T20:38:52.386Z,29.73
2019-06-26T20:41:22.133Z,29.65
2019-06-26T20:43:51.665Z,29.56
2019-06-26T20:46:20.940Z,29.51
2019-06-26T20:48:50.077Z,29.46
2019-06-26T20:51:20.912Z,29.40
2019-06-26T20:53:50.381Z,29.35
2019-06-26T20:56:19.593Z,29.28
2019-06-26T20:58:48.936Z,29.21
2019-06-26T21:01:18.170Z,29.12
2019-06-26T21:03:47.544Z,29.03
2019-06-26T21:06:16.727Z,28.98
2019-06-26T21:08:45.947Z,28.93
2019-06-26T21:11:15.929Z,28.84
2019-06-26T21:13:45.270Z,28.81
2019-06-26T21:16:14.430Z,28.76
2019-06-26T21:18:43.588Z,28.68
2019-06-26T21:21:12.874Z,28.61
2019-06-26T21:23:42.042Z,28.56
2019-06-26T21:26:11.234Z,28.47
2019-06-26T21:28:40.406Z,28.42
2019-06-26T21:31:09.627Z,28.40
2019-06-26T21:33:38.974Z,28.36
2019-06-26T21:36:08.160Z,28.31
2019-06-26T21:38:37.350Z,28.23
2019-06-26T21:41:06.539Z,28.21
2019-06-26T21:43:35.767Z,28.18
2019-06-26T21:46:04.959Z,28.12
2019-06-26T21:48:34.110Z,28.10
2019-06-26T21:51:03.555Z,28.09
2019-06-26T21:53:32.776Z,28.06
2019-06-26T21:56:02.000Z,28.00
2019-06-26T21:58:31.318Z,27.97
2019-06-26T22:01:00.476Z,27.93
2019-06-26T22:03:30.868Z,27.90
2019-06-26T22:06:00.099Z,27.90
2019-06-26T22:08:29.273Z,27.88
2019-06-26T22:10:58.545Z,27.86
2019-06-26T22:13:29.275Z,27.83
2019-06-26T22:15:58.413Z,27.82
2019-06-26T22:18:27.614Z,27.81
2019-06-26T22:20:56.852Z,27.82
2019-06-26T22:23:25.966Z,27.79
2019-06-26T22:25:55.184Z,27.78
2019-06-26T22:28:24.325Z,27.73
2019-06-26T22:30:53.488Z,27.69
2019-06-26T22:33:22.627Z,27.66
2019-06-26T22:35:51.819Z,27.62
2019-06-26T22:38:20.999Z,27.57
2019-06-26T22:40:50.213Z,27.51
2019-06-26T22:43:19.403Z,27.42
2019-06-26T22:45:48.547Z,27.25
2019-06-26T22:48:17.709Z,27.11
2019-06-26T22:50:48.242Z,27.07
2019-06-26T22:53:17.390Z,27.08
2019-06-26T22:55:46.588Z,27.07
2019-06-26T22:58:15.769Z,27.06
2019-06-26T23:00:47.692Z,27.03
2019-06-26T23:03:16.040Z,26.97
2019-06-26T23:05:45.199Z,26.93
2019-06-26T23:08:14.602Z,26.85
2019-06-26T23:10:43.877Z,26.79
2019-06-26T23:13:13.082Z,26.78
2019-06-26T23:15:42.311Z,26.75
2019-06-26T23:18:11.510Z,26.75
2019-06-26T23:20:41.151Z,26.73
2019-06-26T23:23:10.324Z,26.71
2019-06-26T23:25:39.463Z,26.66
2019-06-26T23:28:08.657Z,26.61
2019-06-26T23:30:37.839Z,26.61
2019-06-26T23:33:07.062Z,26.58
2019-06-26T23:35:36.195Z,26.56
2019-06-26T23:38:05.788Z,26.52
2019-06-26T23:40:34.932Z,26.50
2019-06-26T23:43:04.083Z,26.47
2019-06-26T23:45:33.244Z,26.40
2019-06-26T23:48:02.464Z,26.37
2019-06-26T23:50:31.632Z,26.37
2019-06-26T23:53:00.874Z,26.38
2019-06-26T23:55:30.002Z,26.34
2019-06-26T23:57:59.772Z,26.32
